Lehigh Valley International Airport
KABE : now visible

Airfield :











YOU CAN JOIN US ON...

 
LOGIN :

Register | Disclaimer

   EN    FR    IT 

 









Legend :    VFR   Marginal VFR   IFR   Intensive IFR   Very Intensive IFR
Visi :
Ceiling :
>= 8 km
>= 3000ft
5 to 8 km
1000 to 3000 ft
1500m to 5 km
500 to 1000 ft
800 to 1500m
200 to 500 ft
< 800m
< 200 ft
Symbols :   Thunderstorms  Fog  Heavy snow  Heavy precipitations  Wind > 20 kt







- Airport Elevation : 393 ft
- IATA code : ABE


KABE - Lehigh Valley International

CURRENT METAR :
  • 181931Z 01004KT 10SM BKN019 BKN090 29/23 A2987 RMK AO2 LTG DSNT SE AND S RAE08 P0000 T02890233

EXPIRED METARs :
  • 181851Z 05006KT 9SM -RA FEW050 BKN090 OVC110 27/24 A2987 RMK AO2 SLP111 P0004 T02670239
  • 181826Z 02005KT 2 1/2SM -RA BR FEW048 SCT060 OVC080 26/24 A2988 RMK AO2 LTG DSNT SE AND S P0004 T02610239
  • 181812Z 02008KT 2 1/2SM RA BR SCT023 SCT044 OVC060 26/24 A2988 RMK AO2 LTG DSNT SE P0004 T02610239
  • 181751Z 35010KT 7SM -RA BKN020 BKN025 OVC065 28/24 A2988 RMK AO2 RAB50 SLP115 P0000 60011 T02780239 10300 20239 58010
  • 181731Z VRB03KT 10SM BKN019 BKN025 OVC090 29/23 A2989 RMK AO2 T02940233
  • 181707Z 00000KT 10SM SCT018 BKN060 OVC090 29/23 A2989 RMK AO2 T02890228
  • 181651Z VRB03KT 10SM BKN017 OVC090 28/23 A2990 RMK AO2 SLP120 T02830233

TAF KABE
Valid from the 18 at 19:00 until the 19 at 18:00 UTC


181904Z 1819/1918 05005KT P6SM VCSH SCT020 BKN050
TEMPO 1819/1821 5SM SHRA BKN025 OVC040
FM182300 VRB02KT P6SM SCT025 BKN040
FM190300 VRB02KT 5SM BR SCT010 BKN200
FM190800 00000KT 3SM BR BKN008
FM191400 25004KT 6SM HZ SCT012 BKN200
KZNY FIR / North America



MET'MAP, your aeronautical weather chart ! - Copyright ORBIFLY December 2007 - Disclaimer

ORBIFLY MET'MAP TEAM :

Programming & Development : Alexandra Zaïnal
Concept & Development : Baudouin d'Aumeries
Co-Development & Prog : Marc-Olivier Méhu
Technical & hardware support : Manuel Goepfert

Contact : metmap@orbifly.com




SOURCES & CREDITS :

   NOAA       Earth
Advisory